• Join FlightAware (Why Join?)
  • Login
  • US Flag 
08:38AM EDT


 

Airport Tracker/Info


-or-


 

Live Flight TrackerFlight Track Log ✈ ERR781 ✈ 24-Feb-2014 ✈ PASC / SCC - PAFA / FAI

Flight Track Log - Related Links

Times and Time Zones

All times are in EST time to prevent confusion due to time zone crossing. See the ERR781 flight status page for this flight to view local times or setup timezone preferences in your user account.

Time Position Orientation Groundspeed Altitude Reporting Facility
EST Latitude Longitude Course Direction KTS MPH feet Rate Location/Type
05:24PM 70.0167 -148.5333 173° South 150 173 7,300  Level Anchorage Center
05:25PM 69.9667 -148.5167 173° South 170 196 8,800 1,320 Climbing Anchorage Center
05:26PM 69.9167 -148.5167 180° South 180 207 10,000 1,260 Climbing Anchorage Center
05:27PM 69.8667 -148.5000 173° South 190 219 11,400 1,260 Climbing Anchorage Center
05:28PM 69.8167 -148.5000 180° South 190 219 12,600 1,260 Climbing Anchorage Center
05:29PM 69.7500 -148.4833 175° South 190 219 14,000 1,260 Climbing Anchorage Center
05:30PM 69.7000 -148.4833 180° South 200 230 15,200 1,140 Climbing Anchorage Center
05:31PM 69.6500 -148.4667 173° South 200 230 16,300 960 Climbing Anchorage Center
05:32PM 69.6000 -148.4667 180° South 200 230 17,200 780 Climbing Anchorage Center
05:33PM 69.5333 -148.4500 175° South 200 230 17,900 720 Climbing Anchorage Center
05:34PM 69.4833 -148.4500 180° South 200 230 18,700 780 Climbing Anchorage Center
05:35PM 69.4333 -148.4333 173° South 200 230 19,600 900 Climbing Anchorage Center
05:36PM 69.3667 -148.4333 180° South 200 230 20,500 900 Climbing Anchorage Center
05:37PM 69.3167 -148.4167 173° South 190 219 21,400 840 Climbing Anchorage Center
05:38PM 69.2667 -148.4167 180° South 190 219 22,300 780 Climbing Anchorage Center
05:39PM 69.2167 -148.4000 173° South 190 219 23,000 300 Climbing Anchorage Center
05:40PM 69.1667 -148.4000 180° South 210 242 23,000  Level Anchorage Center
05:41PM 69.1000 -148.3833 175° South 230 265 23,000  Level Anchorage Center
05:42PM 69.0333 -148.3833 180° South 240 276 23,000  Level Anchorage Center
05:44PM 68.9000 -148.3500 175° South 230 265 23,000  Level Anchorage Center
05:45PM 68.8333 -148.3500 180° South 220 253 23,000  Level Anchorage Center
05:46PM 68.7833 -148.3500 180° South 230 265 23,000  Level Anchorage Center
05:47PM 68.7167 -148.3333 175° South 230 265 23,000  Level Anchorage Center
05:48PM 68.6500 -148.3167 175° South 230 265 23,000  Level Anchorage Center
05:49PM 68.5833 -148.3167 180° South 230 265 23,000  Level Anchorage Center
05:50PM 68.5167 -148.3000 175° South 230 265 23,000  Level Anchorage Center
05:51PM 68.4500 -148.3000 180° South 240 276 23,000  Level Anchorage Center
05:52PM 68.3833 -148.2833 175° South 240 276 23,000  Level Anchorage Center
05:53PM 68.3333 -148.2833 180° South 220 253 23,000  Level Anchorage Center
05:54PM 68.2667 -148.2667 175° South 230 265 23,000  Level Anchorage Center
05:55PM 68.2000 -148.2667 180° South 230 265 23,000  Level Anchorage Center
05:56PM 68.1333 -148.2500 175° South 220 253 23,000  Level Anchorage Center
05:57PM 68.0667 -148.2333 175° South 240 276 23,000  Level Anchorage Center
05:58PM 68.0167 -148.2333 180° South 220 253 23,000  Level Anchorage Center
05:59PM 67.9500 -148.2167 175° South 240 276 23,000  Level Anchorage Center
06:00PM 67.8833 -148.2167 180° South 240 276 23,000  Level Anchorage Center
06:01PM 67.8167 -148.2000 175° South 220 253 23,000  Level Anchorage Center
06:02PM 67.7500 -148.2000 180° South 230 265 23,000  Level Anchorage Center
06:03PM 67.7000 -148.1833 173° South 220 253 23,000  Level Anchorage Center
06:04PM 67.6333 -148.1833 180° South 220 253 23,000  Level Anchorage Center
06:05PM 67.5667 -148.1833 180° South 250 288 23,000  Level Anchorage Center
06:06PM 67.5000 -148.1667 175° South 210 242 23,000  Level Anchorage Center
06:07PM 67.4500 -148.1500 173° South 220 253 23,000  Level Anchorage Center
06:08PM 67.3833 -148.1500 180° South 210 242 23,000  Level Anchorage Center
06:09PM 67.3000 -148.1333 176° South 240 276 23,000  Level Anchorage Center
06:10PM 67.2500 -148.1333 180° South 230 265 23,000  Level Anchorage Center
06:11PM 67.1833 -148.1167 174° South 220 253 23,000  Level Anchorage Center
06:12PM 67.1167 -148.1167 180° South 220 253 23,000  Level Anchorage Center
06:13PM 67.0667 -148.1000 173° South 220 253 23,000  Level Anchorage Center
06:14PM 67.0000 -148.1000 180° South 230 265 23,000  Level Anchorage Center
06:15PM 66.9333 -148.1000 180° South 220 253 23,000  Level Anchorage Center
06:16PM 66.8667 -148.0833 174° South 230 265 23,000  Level Anchorage Center
06:17PM 66.8167 -148.0833 180° South 220 253 23,000  Level Anchorage Center
06:18PM 66.7500 -148.0833 180° South 220 253 23,000  Level Anchorage Center
06:19PM 66.6833 -148.0667 174° South 230 265 23,000  Level Anchorage Center
06:20PM 66.6333 -148.0667 180° South 220 253 23,000  Level Anchorage Center
06:21PM 66.5667 -148.0500 174° South 230 265 23,000  Level Anchorage Center
06:22PM 66.5000 -148.0500 180° South 230 265 23,000  Level Anchorage Center
06:23PM 66.4333 -148.0333 174° South 220 253 23,000  Level Anchorage Center
06:24PM 66.3833 -148.0333 180° South 220 253 23,000  Level Anchorage Center
06:25PM 66.3167 -148.0167 174° South 230 265 23,000  Level Anchorage Center
06:26PM 66.2500 -148.0167 180° South 220 253 23,000  Level Anchorage Center
06:27PM 66.2000 -148.0167 180° South 220 253 23,000  Level Anchorage Center
06:28PM 66.1333 -148.0000 174° South 220 253 23,000  Level Anchorage Center
06:29PM 66.0667 -147.9833 174° South 220 253 23,000  Level Anchorage Center
06:30PM 66.0000 -147.9833 180° South 230 265 23,000  Level Anchorage Center
06:31PM 65.9333 -147.9667 174° South 230 265 23,000  Level Anchorage Center
06:32PM 65.8833 -147.9667 180° South 230 265 23,000 -540 Level Anchorage Center
06:33PM 65.8167 -147.9500 174° South 230 265 22,000 -1,140 Descending Anchorage Center
06:34PM 65.7500 -147.9500 180° South 240 276 20,800 -1,200 Descending Anchorage Center
06:35PM 65.6833 -147.9333 174° South 250 288 19,600 -1,200 Descending Anchorage Center
06:36PM 65.6167 -147.9333 180° South 240 276 18,400 -1,200 Descending Anchorage Center
06:37PM 65.5500 -147.9167 174° South 250 288 17,300 -1,260 Descending Anchorage Center
06:38PM 65.4833 -147.9167 180° South 260 299 15,900 -1,440 Descending Anchorage Center
06:40PM 65.4062 -147.9115 178° South  Level FlightAware Approximate
06:47PM 64.9857 -147.8712 177° South  Level FlightAware Approximate
06:48PM 64.9256 -147.8643 177° South  Level FlightAware Approximate
06:49PM 64.8656 -147.8575 177° South  Level FlightAware Approximate
06:50PM 64.8151 -147.8564 177° South  Level Estimated
06:51PM 64.8151 -147.8564 177° South  Level Estimated
06:52PM 64.8151 -147.8564 177° South  Level Estimated
06:53PM 64.8151 -147.8564 177° South  Level Estimated
06:54PM 64.8151 -147.8564 177° South  Level Estimated
06:55PM 64.8151 -147.8564 177° South  Level Estimated
06:56PM 64.8151 -147.8564 177° South  Level Estimated
06:57PM 64.8151 -147.8564 177° South  Level Estimated
06:58PM 64.8151 -147.8564 177° South  Level Estimated
06:59PM 64.8151 -147.8564 177° South  Level Estimated
07:00PM 64.8151 -147.8564 177° South  Level Estimated
07:01PM 64.8151 -147.8564 177° South  Level Estimated
07:02PM 64.8151 -147.8564 177° South  Level Estimated
07:03PM 64.8151 -147.8564 177° South  Level Estimated
07:04PM 64.8151 -147.8564 177° South  Level Estimated
07:05PM 64.8151 -147.8564 177° South  Level Estimated
07:06PM 64.8151 -147.8564 177° South  Level Estimated